createdAt,value
2017-06-23T00:00:47.360Z,99.90
2017-06-23T00:03:15.752Z,99.90
2017-06-23T00:05:44.156Z,99.90
2017-06-23T00:08:12.581Z,99.90
2017-06-23T00:10:40.972Z,99.90
2017-06-23T00:13:09.365Z,99.90
2017-06-23T00:15:37.771Z,99.90
2017-06-23T00:18:06.168Z,99.90
2017-06-23T00:23:34.432Z,99.90
2017-06-23T00:26:03.725Z,99.90
2017-06-23T00:28:39.570Z,99.90
2017-06-23T00:31:13.746Z,99.90
2017-06-23T00:34:01.142Z,99.90
2017-06-23T00:36:35.931Z,99.90
2017-06-23T00:39:05.331Z,99.90
2017-06-23T00:41:33.715Z,99.90
2017-06-23T00:47:07.776Z,99.90
2017-06-23T00:49:50.430Z,99.90
2017-06-23T00:52:18.835Z,99.90
2017-06-23T00:54:53.224Z,99.90
2017-06-23T00:57:30.093Z,99.90
2017-06-23T01:00:08.759Z,99.90
2017-06-23T01:02:37.157Z,99.90
2017-06-23T01:08:06.332Z,99.90
2017-06-23T01:10:58.183Z,99.90
2017-06-23T01:13:26.493Z,99.90
2017-06-23T01:15:56.764Z,99.90
2017-06-23T01:18:37.876Z,99.90
2017-06-23T01:21:06.286Z,99.90
2017-06-23T01:23:42.356Z,99.90
2017-06-23T01:26:12.401Z,99.90
2017-06-23T01:28:44.192Z,99.90
2017-06-23T01:31:19.501Z,99.90
2017-06-23T01:33:53.791Z,99.90
2017-06-23T01:36:29.005Z,99.90
2017-06-23T01:38:57.412Z,99.90
2017-06-23T01:41:25.844Z,99.90
2017-06-23T01:43:55.257Z,99.90
2017-06-23T01:46:29.727Z,99.90
2017-06-23T01:49:17.490Z,99.90
2017-06-23T01:52:01.940Z,99.90
2017-06-23T01:54:41.399Z,99.90
2017-06-23T01:57:24.380Z,99.90
2017-06-23T01:59:59.279Z,99.90
2017-06-23T02:02:27.662Z,99.90
2017-06-23T02:05:02.068Z,99.90
2017-06-23T02:07:32.192Z,99.90
2017-06-23T02:10:07.552Z,99.90
2017-06-23T02:12:39.661Z,99.90
2017-06-23T02:18:14.008Z,99.90
2017-06-23T02:23:56.081Z,99.90
2017-06-23T02:29:42.543Z,99.90
2017-06-23T02:32:11.870Z,99.90
2017-06-23T02:34:47.624Z,99.90
2017-06-23T02:37:22.476Z,99.90
2017-06-23T02:40:14.349Z,99.90
2017-06-23T02:42:49.668Z,99.90
2017-06-23T02:45:21.893Z,99.90
2017-06-23T02:51:13.057Z,99.90
2017-06-23T02:53:56.113Z,99.90
2017-06-23T02:56:24.554Z,99.90
2017-06-23T03:01:54.678Z,99.90
2017-06-23T03:04:35.751Z,99.90
2017-06-23T03:10:07.964Z,99.90
2017-06-23T03:12:36.368Z,99.90
2017-06-23T03:15:04.757Z,99.90
2017-06-23T03:23:49.081Z,99.90
2017-06-23T03:29:36.838Z,99.90
2017-06-23T03:32:21.934Z,99.90
2017-06-23T03:38:05.585Z,99.90
2017-06-23T03:43:27.996Z,99.90
2017-06-23T03:46:09.325Z,99.90
2017-06-23T03:48:39.683Z,99.90
2017-06-23T03:51:08.050Z,99.90
2017-06-23T03:53:36.420Z,99.90
2017-06-23T03:56:04.850Z,99.90
2017-06-23T03:58:33.231Z,99.90
2017-06-23T04:01:01.610Z,99.90
2017-06-23T04:03:30.044Z,99.90
2017-06-23T04:05:58.470Z,99.90
2017-06-23T04:08:26.884Z,99.90
2017-06-23T04:10:55.314Z,99.90
2017-06-23T04:13:23.728Z,99.90
2017-06-23T04:16:07.117Z,99.90
2017-06-23T04:18:47.273Z,99.90
2017-06-23T04:21:24.019Z,99.90
2017-06-23T04:23:56.049Z,99.90
2017-06-23T04:26:24.484Z,99.90
2017-06-23T04:28:52.898Z,99.90
2017-06-23T04:31:21.265Z,99.90
2017-06-23T04:33:49.708Z,99.90
2017-06-23T04:36:18.120Z,99.90
2017-06-23T04:38:46.504Z,99.90
2017-06-23T04:41:14.975Z,99.90
2017-06-23T04:43:55.945Z,99.90
2017-06-23T04:49:42.459Z,99.90
2017-06-23T05:01:22.080Z,99.90
2017-06-23T05:03:56.545Z,99.90
2017-06-23T05:06:24.894Z,99.90
2017-06-23T05:09:04.339Z,99.90
2017-06-23T05:11:49.301Z,99.90
2017-06-23T05:14:30.023Z,99.90
2017-06-23T05:23:05.581Z,99.90
2017-06-23T05:25:41.269Z,99.90
2017-06-23T05:31:05.204Z,99.90
2017-06-23T05:33:33.600Z,99.90
2017-06-23T05:36:03.020Z,99.90
2017-06-23T05:38:31.374Z,99.90
2017-06-23T05:44:01.784Z,99.90
2017-06-23T05:46:30.152Z,99.90
2017-06-23T05:48:58.574Z,99.90
2017-06-23T05:51:28.822Z,99.90
2017-06-23T05:53:57.221Z,99.90
2017-06-23T05:56:25.600Z,99.90
2017-06-23T05:58:54.825Z,99.90
2017-06-23T06:01:23.199Z,99.90
2017-06-23T06:03:51.581Z,99.90
2017-06-23T06:06:20.040Z,99.90
2017-06-23T06:08:48.459Z,99.90
2017-06-23T06:11:16.860Z,99.90
2017-06-23T06:13:45.264Z,99.90
2017-06-23T06:16:13.644Z,99.90
2017-06-23T06:18:42.048Z,99.90
2017-06-23T06:21:10.454Z,99.90
2017-06-23T06:23:38.865Z,99.90
2017-06-23T06:26:07.284Z,99.90
2017-06-23T06:28:35.838Z,99.90
2017-06-23T06:31:04.189Z,99.90
2017-06-23T06:33:32.548Z,99.90
2017-06-23T06:36:08.048Z,99.90
2017-06-23T06:38:36.390Z,99.90
2017-06-23T06:41:06.165Z,99.90
2017-06-23T06:43:34.578Z,99.90
2017-06-23T06:46:02.948Z,99.90
2017-06-23T06:48:31.284Z,99.90
2017-06-23T06:50:59.672Z,99.90
2017-06-23T06:53:28.028Z,99.90
2017-06-23T06:55:56.334Z,99.90
2017-06-23T06:58:24.684Z,99.90
2017-06-23T07:00:54.272Z,99.90
2017-06-23T07:03:22.571Z,99.90
2017-06-23T07:05:50.929Z,99.90
2017-06-23T07:08:19.249Z,99.90
2017-06-23T07:10:47.624Z,99.90
2017-06-23T07:13:16.053Z,99.90
2017-06-23T07:15:44.366Z,99.90
2017-06-23T07:18:12.745Z,99.90
2017-06-23T07:20:41.195Z,99.90
2017-06-23T07:23:09.507Z,99.90
2017-06-23T07:25:37.817Z,99.90
2017-06-23T07:28:06.179Z,99.90
2017-06-23T07:30:34.487Z,99.90
2017-06-23T07:33:02.850Z,99.90
2017-06-23T07:35:31.197Z,99.90
2017-06-23T07:37:59.573Z,99.90
2017-06-23T07:40:27.899Z,99.90
2017-06-23T07:42:56.259Z,99.90
2017-06-23T07:45:24.575Z,99.90
2017-06-23T07:47:52.875Z,99.90
2017-06-23T07:50:21.225Z,99.90
2017-06-23T07:52:49.612Z,99.90
2017-06-23T07:55:18.584Z,99.90
2017-06-23T07:57:46.903Z,99.90
2017-06-23T08:00:15.260Z,99.90
2017-06-23T08:02:43.585Z,99.90
2017-06-23T08:05:11.889Z,99.90
2017-06-23T08:07:40.252Z,99.90
2017-06-23T08:10:08.563Z,99.90
2017-06-23T08:12:36.873Z,99.90
2017-06-23T08:15:06.433Z,99.70
2017-06-23T08:17:34.739Z,99.00
2017-06-23T08:20:08.584Z,99.50
2017-06-23T08:22:36.904Z,99.00
2017-06-23T08:25:05.204Z,98.90
2017-06-23T08:27:33.556Z,99.10
2017-06-23T08:30:01.861Z,99.60
2017-06-23T08:32:30.173Z,99.20
2017-06-23T08:34:58.524Z,99.50
2017-06-23T08:37:26.838Z,98.60
2017-06-23T08:39:55.157Z,98.40
2017-06-23T08:42:23.983Z,98.50
2017-06-23T08:44:52.284Z,97.90
2017-06-23T08:47:20.588Z,98.00
2017-06-23T08:49:49.039Z,97.60
2017-06-23T08:52:17.373Z,97.80
2017-06-23T08:54:45.726Z,97.30
2017-06-23T08:57:14.074Z,97.50
2017-06-23T08:59:43.288Z,97.80
2017-06-23T09:02:11.662Z,97.30
2017-06-23T09:04:39.968Z,96.90
2017-06-23T09:07:08.280Z,95.10
2017-06-23T09:09:36.725Z,95.00
2017-06-23T09:12:06.254Z,95.30
2017-06-23T09:14:34.560Z,94.70
2017-06-23T09:17:05.308Z,94.30
2017-06-23T09:19:33.613Z,94.70
2017-06-23T09:22:01.969Z,94.00
2017-06-23T09:24:30.316Z,94.30
2017-06-23T09:26:58.672Z,93.50
2017-06-23T09:29:26.988Z,93.00
2017-06-23T09:31:55.304Z,91.80
2017-06-23T09:34:23.668Z,90.60
2017-06-23T09:36:51.961Z,91.10
2017-06-23T09:39:20.259Z,90.80
2017-06-23T09:41:48.611Z,90.80
2017-06-23T09:44:16.915Z,90.70
2017-06-23T09:46:45.218Z,92.10
2017-06-23T09:49:13.564Z,87.20
2017-06-23T09:51:41.862Z,90.20
2017-06-23T09:54:10.177Z,91.20
2017-06-23T09:56:38.625Z,91.00
2017-06-23T09:59:06.917Z,90.90
2017-06-23T10:01:35.218Z,89.80
2017-06-23T10:04:03.567Z,88.90
2017-06-23T10:06:31.883Z,87.90
2017-06-23T10:09:00.175Z,85.40
2017-06-23T10:11:28.527Z,84.00
2017-06-23T10:13:56.846Z,82.50
2017-06-23T10:16:26.060Z,83.70
2017-06-23T10:18:54.410Z,85.30
2017-06-23T10:21:22.705Z,86.20
2017-06-23T10:23:51.003Z,84.10
2017-06-23T10:26:19.344Z,83.30
2017-06-23T10:28:47.709Z,83.80
2017-06-23T10:31:16.522Z,81.60
2017-06-23T10:33:47.497Z,86.90
2017-06-23T10:36:15.823Z,82.90
2017-06-23T10:38:44.112Z,83.60
2017-06-23T10:41:12.460Z,85.70
2017-06-23T10:43:40.754Z,87.10
2017-06-23T10:46:09.056Z,88.00
2017-06-23T10:48:37.406Z,89.00
2017-06-23T10:51:05.739Z,86.40
2017-06-23T10:53:34.048Z,83.70
2017-06-23T10:56:02.376Z,82.60
2017-06-23T10:58:30.684Z,83.00
2017-06-23T11:00:59.030Z,82.80
2017-06-23T11:03:27.343Z,79.60
2017-06-23T11:05:55.640Z,80.40
2017-06-23T11:08:24.081Z,79.60
2017-06-23T11:10:52.383Z,77.80
2017-06-23T11:13:20.703Z,79.00
2017-06-23T11:15:49.052Z,76.40
2017-06-23T11:18:17.376Z,78.50
2017-06-23T11:20:45.697Z,78.20
2017-06-23T11:23:14.064Z,78.30
2017-06-23T11:25:42.380Z,79.10
2017-06-23T11:28:10.697Z,78.90
2017-06-23T11:30:39.045Z,81.30
2017-06-23T11:33:07.375Z,82.30
2017-06-23T11:35:35.720Z,80.60
2017-06-23T11:38:04.063Z,77.20
2017-06-23T11:40:32.389Z,78.80
2017-06-23T11:43:00.734Z,79.20
2017-06-23T11:45:29.073Z,84.10
2017-06-23T11:47:57.401Z,78.00
2017-06-23T11:50:25.853Z,80.50
2017-06-23T11:52:54.166Z,77.60
2017-06-23T11:55:22.480Z,80.20
2017-06-23T11:57:50.920Z,77.40
2017-06-23T12:00:19.266Z,76.30
2017-06-23T12:02:47.577Z,76.70
2017-06-23T12:05:15.918Z,74.30
2017-06-23T12:07:44.225Z,76.50
2017-06-23T12:10:12.596Z,78.60
2017-06-23T12:12:40.956Z,81.50
2017-06-23T12:15:09.267Z,77.90
2017-06-23T12:17:37.628Z,77.10
2017-06-23T12:20:05.948Z,78.30
2017-06-23T12:22:34.651Z,74.80
2017-06-23T12:25:03.605Z,75.70
2017-06-23T12:27:32.407Z,76.70
2017-06-23T12:30:01.259Z,77.40
2017-06-23T12:32:30.815Z,77.40
2017-06-23T12:34:59.598Z,76.30
2017-06-23T12:37:28.084Z,73.60
2017-06-23T12:39:56.523Z,73.10
2017-06-23T12:42:24.903Z,72.10
2017-06-23T12:44:53.638Z,71.30
2017-06-23T12:47:22.026Z,76.00
2017-06-23T12:49:50.378Z,75.40
2017-06-23T12:52:21.355Z,74.20
2017-06-23T12:54:51.956Z,71.00
2017-06-23T12:57:20.330Z,70.80
2017-06-23T12:59:48.679Z,72.20
2017-06-23T13:02:17.036Z,70.70
2017-06-23T13:04:45.403Z,74.10
2017-06-23T13:07:13.714Z,68.60
2017-06-23T13:09:42.049Z,66.80
2017-06-23T13:12:10.507Z,67.30
2017-06-23T13:14:38.860Z,69.60
2017-06-23T13:17:07.172Z,67.10
2017-06-23T13:19:35.640Z,66.30
2017-06-23T13:22:04.904Z,67.40
2017-06-23T13:24:33.201Z,68.20
2017-06-23T13:27:05.828Z,69.20
2017-06-23T13:29:35.039Z,67.90
2017-06-23T13:32:07.166Z,69.90
2017-06-23T13:34:35.475Z,72.70
2017-06-23T13:37:03.780Z,70.10
2017-06-23T13:39:32.126Z,71.20
2017-06-23T13:42:00.442Z,72.50
2017-06-23T13:44:28.736Z,69.60
2017-06-23T13:46:57.114Z,71.60
2017-06-23T13:49:25.415Z,72.40
2017-06-23T13:51:53.812Z,71.00
2017-06-23T13:54:22.172Z,67.20
2017-06-23T13:56:50.472Z,68.30
2017-06-23T13:59:18.773Z,65.80
2017-06-23T14:01:47.112Z,65.60
2017-06-23T14:04:15.445Z,66.00
2017-06-23T14:06:43.751Z,69.20
2017-06-23T14:09:12.102Z,68.90
2017-06-23T14:11:40.420Z,68.30
2017-06-23T14:14:08.726Z,67.70
2017-06-23T14:16:37.077Z,69.90
2017-06-23T14:19:06.517Z,68.60
2017-06-23T14:21:34.821Z,67.30
2017-06-23T14:24:03.156Z,67.70
2017-06-23T14:26:31.478Z,65.00
2017-06-23T14:28:59.838Z,67.00
2017-06-23T14:31:28.162Z,67.30
2017-06-23T14:33:57.294Z,69.40
2017-06-23T14:36:25.757Z,66.90
2017-06-23T14:38:54.063Z,71.70
2017-06-23T14:41:22.363Z,70.90
2017-06-23T14:43:50.728Z,68.30
2017-06-23T14:46:19.030Z,68.20
2017-06-23T14:48:47.340Z,72.90
2017-06-23T14:51:15.691Z,67.40
2017-06-23T14:53:44.055Z,64.00
2017-06-23T14:56:12.347Z,70.50
2017-06-23T14:58:40.684Z,68.80
2017-06-23T15:01:08.989Z,68.80
2017-06-23T15:03:37.326Z,70.50
2017-06-23T15:06:05.668Z,69.10
2017-06-23T15:08:33.968Z,69.20
2017-06-23T15:11:02.280Z,68.80
2017-06-23T15:13:30.635Z,66.80
2017-06-23T15:15:58.931Z,65.80
2017-06-23T15:18:27.264Z,67.50
2017-06-23T15:20:55.626Z,65.90
2017-06-23T15:23:23.928Z,69.30
2017-06-23T15:25:52.224Z,68.00
2017-06-23T15:28:20.629Z,68.70
2017-06-23T15:30:48.935Z,68.60
2017-06-23T15:33:17.250Z,65.90
2017-06-23T15:35:45.608Z,68.70
2017-06-23T15:38:13.924Z,66.80
2017-06-23T15:40:43.527Z,66.50
2017-06-23T15:43:11.872Z,66.60
2017-06-23T15:45:40.182Z,66.20
2017-06-23T15:48:08.627Z,62.90
2017-06-23T15:50:36.936Z,64.50
2017-06-23T15:53:05.256Z,64.80
2017-06-23T15:55:33.587Z,66.40
2017-06-23T15:58:01.892Z,64.20
2017-06-23T16:00:30.200Z,64.90
2017-06-23T16:02:58.536Z,66.30
2017-06-23T16:05:26.842Z,69.30
2017-06-23T16:07:55.152Z,68.60
2017-06-23T16:10:23.595Z,70.60
2017-06-23T16:12:51.923Z,70.10
2017-06-23T16:15:20.237Z,72.10
2017-06-23T16:17:48.580Z,73.10
2017-06-23T16:20:16.907Z,69.80
2017-06-23T16:22:45.316Z,69.30
2017-06-23T16:25:13.626Z,70.70
2017-06-23T16:27:46.430Z,70.20
2017-06-23T16:30:17.397Z,71.80
2017-06-23T16:32:46.260Z,69.80
2017-06-23T16:35:14.580Z,70.10
2017-06-23T16:37:43.178Z,70.30
2017-06-23T16:40:11.506Z,69.70
2017-06-23T16:42:39.812Z,71.80
2017-06-23T16:45:08.169Z,70.00
2017-06-23T16:47:36.489Z,70.40
2017-06-23T16:50:04.787Z,72.00
2017-06-23T16:52:33.148Z,73.10
2017-06-23T16:55:01.453Z,72.90
2017-06-23T16:57:29.783Z,71.50
2017-06-23T16:59:58.137Z,71.20
2017-06-23T17:02:26.492Z,71.20
2017-06-23T17:04:54.809Z,71.00
2017-06-23T17:07:23.148Z,71.60
2017-06-23T17:09:51.464Z,72.60
2017-06-23T17:12:19.806Z,72.60
2017-06-23T17:14:48.115Z,73.70
2017-06-23T17:17:17.375Z,73.70
2017-06-23T17:19:46.302Z,72.70
2017-06-23T17:22:14.856Z,74.30
2017-06-23T17:24:43.169Z,74.80
2017-06-23T17:27:11.537Z,74.70
2017-06-23T17:29:39.851Z,73.10
2017-06-23T17:32:08.153Z,72.70
2017-06-23T17:34:36.506Z,72.60
2017-06-23T17:37:04.804Z,73.50
2017-06-23T17:39:33.116Z,74.00
2017-06-23T17:42:01.511Z,72.30
2017-06-23T17:44:29.824Z,73.50
2017-06-23T17:46:58.167Z,73.80
2017-06-23T17:49:26.491Z,73.60
2017-06-23T17:51:54.804Z,72.90
2017-06-23T17:54:23.137Z,71.90
2017-06-23T17:56:51.436Z,72.50
2017-06-23T17:59:19.799Z,70.50
2017-06-23T18:01:48.211Z,71.70
2017-06-23T18:04:16.519Z,71.50
2017-06-23T18:06:44.880Z,70.20
2017-06-23T18:09:13.188Z,73.00
2017-06-23T18:11:41.487Z,71.50
2017-06-23T18:14:09.952Z,72.70
2017-06-23T18:16:38.245Z,73.10
2017-06-23T18:19:06.543Z,73.50
2017-06-23T18:21:34.902Z,74.20
2017-06-23T18:24:04.728Z,73.70
2017-06-23T18:26:33.027Z,72.50
2017-06-23T18:29:01.372Z,72.40
2017-06-23T18:31:29.679Z,72.20
2017-06-23T18:33:57.990Z,73.40
2017-06-23T18:36:26.343Z,74.20
2017-06-23T18:38:54.657Z,74.10
2017-06-23T18:41:22.966Z,75.50
2017-06-23T18:43:51.345Z,76.40
2017-06-23T18:46:19.656Z,76.50
2017-06-23T18:48:47.966Z,77.50
2017-06-23T18:51:16.305Z,77.70
2017-06-23T18:53:44.613Z,77.20
2017-06-23T18:56:12.967Z,78.50
2017-06-23T18:58:41.281Z,78.30
2017-06-23T19:01:09.596Z,79.00
2017-06-23T19:03:37.944Z,79.50
2017-06-23T19:06:06.239Z,80.40
2017-06-23T19:08:34.571Z,80.00
2017-06-23T19:11:05.826Z,82.20
2017-06-23T19:13:34.130Z,82.40
2017-06-23T19:16:04.671Z,82.20
2017-06-23T19:18:33.352Z,83.10
2017-06-23T19:21:03.024Z,83.50
2017-06-23T19:23:31.331Z,84.10
2017-06-23T19:25:59.642Z,85.10
2017-06-23T19:28:28.072Z,85.30
2017-06-23T19:30:56.462Z,85.10
2017-06-23T19:33:24.759Z,86.10
2017-06-23T19:35:53.224Z,85.50
2017-06-23T19:38:21.525Z,85.70
2017-06-23T19:40:49.830Z,86.90
2017-06-23T19:43:18.187Z,88.20
2017-06-23T19:45:52.362Z,88.80
2017-06-23T19:48:20.824Z,88.80
2017-06-23T19:50:49.138Z,88.40
2017-06-23T19:53:17.444Z,89.70
2017-06-23T19:55:55.548Z,89.60
2017-06-23T19:58:23.859Z,89.80
2017-06-23T20:00:52.232Z,90.10
2017-06-23T20:03:20.544Z,90.60
2017-06-23T20:05:48.851Z,90.40
2017-06-23T20:08:17.232Z,90.60
2017-06-23T20:10:45.561Z,90.60
2017-06-23T20:13:14.048Z,90.90
2017-06-23T20:15:42.441Z,91.00
2017-06-23T20:18:10.824Z,91.00
2017-06-23T20:20:44.953Z,91.00
2017-06-23T20:23:13.258Z,90.90
2017-06-23T20:25:41.616Z,91.30
2017-06-23T20:28:09.971Z,91.40
2017-06-23T20:30:38.376Z,92.00
2017-06-23T20:33:06.823Z,92.70
2017-06-23T20:35:35.246Z,92.70
2017-06-23T20:38:03.617Z,93.20
2017-06-23T20:40:32.462Z,92.70
2017-06-23T20:43:06.636Z,92.80
2017-06-23T20:48:35.021Z,92.00
2017-06-23T20:51:03.382Z,92.20
2017-06-23T20:53:31.757Z,92.20
2017-06-23T20:56:00.171Z,92.70
2017-06-23T20:58:28.571Z,92.80
2017-06-23T21:00:57.016Z,93.00
2017-06-23T21:03:25.342Z,93.80
2017-06-23T21:05:53.660Z,93.50
2017-06-23T21:08:22.008Z,92.90
2017-06-23T21:10:52.718Z,93.20
2017-06-23T21:13:21.030Z,93.10
2017-06-23T21:15:49.464Z,93.20
2017-06-23T21:18:30.589Z,93.50
2017-06-23T21:21:05.492Z,93.10
2017-06-23T21:23:33.800Z,92.80
2017-06-23T21:26:03.592Z,92.80
2017-06-23T21:28:32.168Z,92.90
2017-06-23T21:31:00.475Z,93.10
2017-06-23T21:33:28.836Z,92.80
2017-06-23T21:35:57.236Z,92.60
2017-06-23T21:38:25.616Z,93.00
2017-06-23T21:41:05.794Z,93.00
2017-06-23T21:43:34.087Z,93.20
2017-06-23T21:46:02.417Z,93.20
2017-06-23T21:48:30.873Z,93.10
2017-06-23T21:50:59.206Z,93.10
2017-06-23T21:56:41.418Z,92.90
2017-06-23T21:59:09.780Z,92.80
2017-06-23T22:01:38.188Z,92.20
2017-06-23T22:04:07.499Z,91.90
2017-06-23T22:06:35.884Z,91.90
2017-06-23T22:09:04.256Z,92.10
2017-06-23T22:11:32.648Z,91.90
2017-06-23T22:14:01.047Z,92.20
2017-06-23T22:16:29.476Z,92.40
2017-06-23T22:18:57.861Z,92.50
2017-06-23T22:21:45.049Z,92.50
2017-06-23T22:24:19.396Z,92.50
2017-06-23T22:29:42.284Z,92.80
2017-06-23T22:32:10.644Z,92.80
2017-06-23T22:34:38.968Z,92.00
2017-06-23T22:37:19.635Z,91.90
2017-06-23T22:40:01.121Z,92.10
2017-06-23T22:45:29.891Z,91.90
2017-06-23T22:50:51.633Z,91.80
2017-06-23T22:53:20.037Z,92.30
2017-06-23T22:55:48.430Z,92.30
2017-06-23T22:58:17.788Z,92.50
2017-06-23T23:00:46.251Z,92.50
2017-06-23T23:03:14.647Z,92.30
2017-06-23T23:05:49.234Z,91.90
2017-06-23T23:11:33.941Z,92.30
2017-06-23T23:14:02.316Z,92.80
2017-06-23T23:16:30.956Z,92.30
2017-06-23T23:18:59.734Z,92.20
2017-06-23T23:21:28.141Z,92.00
2017-06-23T23:23:56.520Z,92.10
2017-06-23T23:26:24.895Z,92.10
2017-06-23T23:28:54.616Z,92.00
2017-06-23T23:31:29.875Z,91.70
2017-06-23T23:34:00.028Z,91.60
2017-06-23T23:36:28.424Z,92.00
2017-06-23T23:38:56.811Z,92.40
2017-06-23T23:41:25.219Z,92.10
2017-06-23T23:43:53.616Z,92.40
2017-06-23T23:46:22.020Z,92.60
2017-06-23T23:48:50.369Z,93.00
2017-06-23T23:51:18.749Z,92.70
2017-06-23T23:53:47.130Z,92.70
2017-06-23T23:56:23.711Z,93.10
2017-06-23T23:58:52.147Z,93.20
